Shin Puropan Maru — JG5508 — position and weather

sailwx.info

Track history (hours):
 
Tides and Currents Weather Stations Pressure Air Temp Water Temp Dewpoint Dewpoint Depression Visibility Wind Speed Wind Dir Waves Ship Positions

Shin Puropan Maru

Last reported at 2015-Mar-02 06:25 UTC. Time now 2015-Mar-04 04:16 UTC.
Position N 34°03' E 135°00'.

Length 66 m; draft 4.2 m.

Type: Ship (hazmat cat A). MMSI: 431100348.

Date/timePositionNaut miles runAvg speedWind from/ knotsBaromVisibWave heightAir tempDewpointWater temp
2015-Mar-02 06:25N 34°03' E 135°00'1113.0
2015-Mar-02 05:33N 34°14' E 134°59'1212.0
2015-Mar-02 04:33N 34°25' E 135°06'1312.6
2015-Mar-02 03:30N 34°32' E 135°20'4 0.9
2015-Mar-01 23:04N 34°32' E 135°25'2 4.8
2015-Mar-01 22:33N 34°33' E 135°22'1 0.9
2015-Mar-01 21:33N 34°32' E 135°21'0 0.0
2015-Mar-01 20:28N 34°32' E 135°21'0 0.0
2015-Mar-01 19:32N 34°32' E 135°21'0 0.0
2015-Mar-01 18:30N 34°32' E 135°21'0 0.0
2015-Mar-01 17:32N 34°32' E 135°21'0 0.0
2015-Mar-01 16:33N 34°32' E 135°21'0 0.0
2015-Mar-01 15:32N 34°32' E 135°21'0 0.0
2015-Mar-01 14:32N 34°32' E 135°21'0 0.0
2015-Mar-01 13:28N 34°32' E 135°21'0 0.1
2015-Mar-01 12:33N 34°32' E 135°21'0 0.0
2015-Mar-01 11:30N 34°32' E 135°21'0 0.1
2015-Mar-01 10:33N 34°32' E 135°21'0 0.0
2015-Mar-01 09:31N 34°32' E 135°21'0 0.0
2015-Mar-01 08:33N 34°32' E 135°21'0 0.0
2015-Mar-01 07:23N 34°32' E 135°21'0 0.1
2015-Mar-01 06:30N 34°32' E 135°21'0 0.1
2015-Mar-01 05:33N 34°32' E 135°21'0 0.0
2015-Mar-01 04:33N 34°32' E 135°21'0 0.0
2015-Mar-01 03:33N 34°32' E 135°21'4 4.5
2015-Mar-01 02:33N 34°36' E 135°24'2 1.6
2015-Mar-01 01:15N 34°34' E 135°26'0 0.0
2015-Mar-01 00:21N 34°34' E 135°26'0 0.0
2015-Feb-28 23:22N 34°34' E 135°26'1 0.7
2015-Feb-28 22:32N 34°35' E 135°25'4 4.0
2015-Feb-28 21:33N 34°35' E 135°21'1010.0
2015-Feb-28 20:33N 34°28' E 135°12'1211.8
2015-Feb-28 19:33N 34°20' E 135°02'1111.5
2015-Feb-28 18:33N 34°09' E 135°00'231 9.6
2015-Feb-27 18:32N 35°03' E 139°33'1212.0
2015-Feb-27 17:33N 35°11' E 139°44'1111.2
2015-Feb-27 16:34N 35°22' E 139°42'1211.8
2015-Feb-27 15:33N 35°31' E 139°52'3 0.1
2015-Feb-26 08:28N 35°31' E 139°56'1112.0
2015-Feb-26 07:33N 35°23' E 139°46'1110.7
2015-Feb-26 06:33N 35°13' E 139°47'1111.1
2015-Feb-26 05:32N 35°02' E 139°41'23910.4
2015-Feb-25 06:28N 34°03' E 135°00'1612.7
2015-Feb-25 05:14N 34°19' E 134°59'1112.3
2015-Feb-25 04:20N 34°27' E 135°07'1012.7
2015-Feb-25 03:33N 34°34' E 135°16'8 1.9
2015-Feb-24 23:33N 34°34' E 135°26'4 4.2
2015-Feb-24 22:33N 34°35' E 135°21'7 7.4
2015-Feb-24 21:33N 34°30' E 135°15'1211.6
2015-Feb-24 20:30N 34°22' E 135°04'1010.2
2015-Feb-24 19:33N 34°13' E 134°60'11 0.3
2015-Feb-23 04:33N 34°02' E 134°60'1212.0
2015-Feb-23 03:33N 34°13' E 134°58'13 6.3
2015-Feb-23 01:31N 34°23' E 135°09'0 0.0
2015-Feb-22 23:28N 34°23' E 135°09'0 0.0
2015-Feb-22 22:04N 34°23' E 135°09'0 0.0
2015-Feb-22 20:31N 34°23' E 135°09'0 0.0
2015-Feb-22 19:28N 34°23' E 135°09'0 0.1
2015-Feb-22 18:31N 34°23' E 135°09'0 0.0
2015-Feb-22 17:22N 34°23' E 135°09'0 0.0
2015-Feb-22 15:28N 34°23' E 135°09'0 0.0
2015-Feb-22 14:16N 34°23' E 135°09'0 0.0
2015-Feb-22 13:13N 34°23' E 135°09'0 0.0
2015-Feb-22 12:28N 34°23' E 135°09'0 0.0
2015-Feb-22 11:28N 34°23' E 135°09'0 0.0
2015-Feb-22 10:31N 34°23' E 135°09'0 0.0
2015-Feb-22 09:04N 34°23' E 135°09'0 0.1
2015-Feb-22 08:10N 34°23' E 135°09'0 0.0
2015-Feb-22 07:31N 34°23' E 135°09'0 0.0
2015-Feb-22 06:22N 34°23' E 135°09'0 0.0
2015-Feb-22 05:22N 34°23' E 135°09'0 0.1
2015-Feb-22 04:31N 34°23' E 135°09'6 5.8
2015-Feb-22 03:33N 34°28' E 135°13'1312.6
2015-Feb-22 02:33N 34°36' E 135°23'3 0.9
2015-Feb-21 23:16N 34°34' E 135°26'1 1.4
2015-Feb-21 22:33N 34°35' E 135°25'8 7.6
2015-Feb-21 21:33N 34°32' E 135°17'1111.2
2015-Feb-21 20:33N 34°24' E 135°07'1110.2
2015-Feb-21 19:26N 34°15' E 134°60'1111.4
2015-Feb-21 18:30N 34°04' E 135°00'  
Track history (hours):
 
Tides and Currents Weather Stations Pressure Air Temp Water Temp Dewpoint Dewpoint Depression Visibility Wind Speed Wind Dir Waves Ship Positions

Shin Puropan Maru

Last reported at 2015-Mar-02 06:25 UTC. Time now 2015-Mar-04 04:16 UTC.
Position N 34°03' E 135°00'.

Length 66 m; draft 4.2 m.

Type: Ship (hazmat cat A). MMSI: 431100348.

Date/timePositionNaut miles runAvg speedWind from/ knotsBaromVisibWave heightAir tempDewpointWater temp
2015-Mar-02 06:25N 34°03' E 135°00'1113.0
2015-Mar-02 05:33N 34°14' E 134°59'1212.0
2015-Mar-02 04:33N 34°25' E 135°06'1312.6
2015-Mar-02 03:30N 34°32' E 135°20'4 0.9
2015-Mar-01 23:04N 34°32' E 135°25'2 4.8
2015-Mar-01 22:33N 34°33' E 135°22'1 0.9
2015-Mar-01 21:33N 34°32' E 135°21'0 0.0
2015-Mar-01 20:28N 34°32' E 135°21'0 0.0
2015-Mar-01 19:32N 34°32' E 135°21'0 0.0
2015-Mar-01 18:30N 34°32' E 135°21'0 0.0
2015-Mar-01 17:32N 34°32' E 135°21'0 0.0
2015-Mar-01 16:33N 34°32' E 135°21'0 0.0
2015-Mar-01 15:32N 34°32' E 135°21'0 0.0
2015-Mar-01 14:32N 34°32' E 135°21'0 0.0
2015-Mar-01 13:28N 34°32' E 135°21'0 0.1
2015-Mar-01 12:33N 34°32' E 135°21'0 0.0
2015-Mar-01 11:30N 34°32' E 135°21'0 0.1
2015-Mar-01 10:33N 34°32' E 135°21'0 0.0
2015-Mar-01 09:31N 34°32' E 135°21'0 0.0
2015-Mar-01 08:33N 34°32' E 135°21'0 0.0
2015-Mar-01 07:23N 34°32' E 135°21'0 0.1
2015-Mar-01 06:30N 34°32' E 135°21'0 0.1
2015-Mar-01 05:33N 34°32' E 135°21'0 0.0
2015-Mar-01 04:33N 34°32' E 135°21'0 0.0
2015-Mar-01 03:33N 34°32' E 135°21'4 4.5
2015-Mar-01 02:33N 34°36' E 135°24'2 1.6
2015-Mar-01 01:15N 34°34' E 135°26'0 0.0
2015-Mar-01 00:21N 34°34' E 135°26'0 0.0
2015-Feb-28 23:22N 34°34' E 135°26'1 0.7
2015-Feb-28 22:32N 34°35' E 135°25'4 4.0
2015-Feb-28 21:33N 34°35' E 135°21'1010.0
2015-Feb-28 20:33N 34°28' E 135°12'1211.8
2015-Feb-28 19:33N 34°20' E 135°02'1111.5
2015-Feb-28 18:33N 34°09' E 135°00'231 9.6
2015-Feb-27 18:32N 35°03' E 139°33'1212.0
2015-Feb-27 17:33N 35°11' E 139°44'1111.2
2015-Feb-27 16:34N 35°22' E 139°42'1211.8
2015-Feb-27 15:33N 35°31' E 139°52'3 0.1
2015-Feb-26 08:28N 35°31' E 139°56'1112.0
2015-Feb-26 07:33N 35°23' E 139°46'1110.7
2015-Feb-26 06:33N 35°13' E 139°47'1111.1
2015-Feb-26 05:32N 35°02' E 139°41'23910.4
2015-Feb-25 06:28N 34°03' E 135°00'1612.7
2015-Feb-25 05:14N 34°19' E 134°59'1112.3
2015-Feb-25 04:20N 34°27' E 135°07'1012.7
2015-Feb-25 03:33N 34°34' E 135°16'8 1.9
2015-Feb-24 23:33N 34°34' E 135°26'4 4.2
2015-Feb-24 22:33N 34°35' E 135°21'7 7.4
2015-Feb-24 21:33N 34°30' E 135°15'1211.6
2015-Feb-24 20:30N 34°22' E 135°04'1010.2
2015-Feb-24 19:33N 34°13' E 134°60'11 0.3
2015-Feb-23 04:33N 34°02' E 134°60'1212.0
2015-Feb-23 03:33N 34°13' E 134°58'13 6.3
2015-Feb-23 01:31N 34°23' E 135°09'0 0.0
2015-Feb-22 23:28N 34°23' E 135°09'0 0.0
2015-Feb-22 22:04N 34°23' E 135°09'0 0.0
2015-Feb-22 20:31N 34°23' E 135°09'0 0.0
2015-Feb-22 19:28N 34°23' E 135°09'0 0.1
2015-Feb-22 18:31N 34°23' E 135°09'0 0.0
2015-Feb-22 17:22N 34°23' E 135°09'0 0.0
2015-Feb-22 15:28N 34°23' E 135°09'0 0.0
2015-Feb-22 14:16N 34°23' E 135°09'0 0.0
2015-Feb-22 13:13N 34°23' E 135°09'0 0.0
2015-Feb-22 12:28N 34°23' E 135°09'0 0.0
2015-Feb-22 11:28N 34°23' E 135°09'0 0.0
2015-Feb-22 10:31N 34°23' E 135°09'0 0.0
2015-Feb-22 09:04N 34°23' E 135°09'0 0.1
2015-Feb-22 08:10N 34°23' E 135°09'0 0.0
2015-Feb-22 07:31N 34°23' E 135°09'0 0.0
2015-Feb-22 06:22N 34°23' E 135°09'0 0.0
2015-Feb-22 05:22N 34°23' E 135°09'0 0.1
2015-Feb-22 04:31N 34°23' E 135°09'6 5.8
2015-Feb-22 03:33N 34°28' E 135°13'1312.6
2015-Feb-22 02:33N 34°36' E 135°23'3 0.9
2015-Feb-21 23:16N 34°34' E 135°26'1 1.4
2015-Feb-21 22:33N 34°35' E 135°25'8 7.6
2015-Feb-21 21:33N 34°32' E 135°17'1111.2
2015-Feb-21 20:33N 34°24' E 135°07'1110.2
2015-Feb-21 19:26N 34°15' E 134°60'1111.4
2015-Feb-21 18:30N 34°04' E 135°00'  

Dump ship's entire track history